Time;durP1;ratioP1;P1;durP2;ratioP2;P2;SDS_P1;SDS_P2;PMS_P1;PMS_P2;Temp;Humidity;BMP_temperature;BMP_pressure;BME280_temperature;BME280_humidity;BME280_pressure;Samples;Min_cycle;Max_cycle;Signal;HPM_P1;HPM_P2
2020/12/17 00:00:02;;;;;;;;;;;9.10;84.40;;;;;;5006065;28;20412;-44
2020/12/17 00:02:28;;;;;;;;;;;9.10;84.40;;;;;;5006667;28;19925;-43
2020/12/17 00:04:54;;;;;;;;;;;9.10;84.50;;;;;;5001990;28;19956;-43
2020/12/17 00:07:20;;;;;;;;;;;9.10;84.50;;;;;;5007948;28;20336;-44
2020/12/17 00:09:47;;;;;;;;;;;9.10;84.40;;;;;;5006276;28;19936;-44
2020/12/17 00:12:13;;;;;;;;;;;9.00;84.30;;;;;;5001818;28;19940;-43
2020/12/17 00:14:41;;;;;;;;;;;9.00;84.40;;;;;;5006466;28;19929;-44
2020/12/17 00:17:09;;;;;;;;;;;9.00;84.40;;;;;;5006066;28;20346;-43
2020/12/17 00:19:35;;;;;;;;;;;9.00;84.30;;;;;;5002714;28;19936;-44
2020/12/17 00:22:04;;;;;;;;;;;9.00;84.30;;;;;;5002569;28;19933;-43
2020/12/17 00:24:31;;;;;;;;;;;9.00;84.10;;;;;;5006327;28;20396;-43
2020/12/17 00:26:57;;;;;;;;;;;8.90;84.10;;;;;;5009743;28;19936;-43
2020/12/17 00:29:23;;;;;;;;;;;8.90;84.10;;;;;;5021667;28;19931;-43
2020/12/17 00:31:52;;;;;;;;;;;8.90;84.00;;;;;;5005044;28;20312;-42
2020/12/17 00:34:19;;;;;;;;;;;8.90;83.80;;;;;;5004057;28;19933;-44
2020/12/17 00:36:51;;;;;;;;;;;8.90;83.80;;;;;;5007509;28;19933;-44
2020/12/17 00:39:17;;;;;;;;;;;8.90;83.80;;;;;;4999627;28;19936;-43
2020/12/17 00:41:46;;;;;;;;;;;8.80;83.80;;;;;;5005696;28;20377;-44
2020/12/17 00:44:15;;;;;;;;;;;8.80;83.70;;;;;;5015135;28;19926;-43
2020/12/17 00:46:41;;;;;;;;;;;8.80;83.70;;;;;;4986548;28;19936;-44
2020/12/17 00:49:07;;;;;;;;;;;8.80;83.60;;;;;;4991059;28;20051;-44
2020/12/17 00:51:33;;;;;;;;;;;8.80;83.60;;;;;;5003934;28;19926;-44
2020/12/17 00:53:59;;;;;;;;;;;8.80;83.60;;;;;;5006561;28;19937;-44
2020/12/17 00:56:26;;;;;;;;;;;8.70;83.70;;;;;;5005138;28;20301;-44
2020/12/17 00:58:52;;;;;;;;;;;8.70;83.70;;;;;;5019903;28;19925;-44
2020/12/17 01:01:18;;;;;;;;;;;8.70;83.70;;;;;;5006898;28;19935;-43
2020/12/17 01:03:44;;;;;;;;;;;8.70;83.80;;;;;;5004833;28;20336;-43
2020/12/17 01:06:10;;;;;;;;;;;8.70;83.80;;;;;;5004896;28;20051;-43
2020/12/17 01:08:39;;;;;;;;;;;8.70;83.90;;;;;;5006660;28;19929;-43
2020/12/17 01:11:05;;;;;;;;;;;8.70;83.90;;;;;;5003913;28;19936;-43
2020/12/17 01:13:31;;;;;;;;;;;8.60;83.90;;;;;;5004710;28;19933;-44
2020/12/17 01:15:58;;;;;;;;;;;8.60;83.90;;;;;;5008757;28;20074;-44
2020/12/17 01:18:28;;;;;;;;;;;8.60;84.00;;;;;;5003753;28;19933;-43
2020/12/17 01:20:54;;;;;;;;;;;8.60;84.00;;;;;;5009221;28;20377;-44
2020/12/17 01:23:21;;;;;;;;;;;8.60;84.10;;;;;;5003542;28;20381;-44
2020/12/17 01:25:47;;;;;;;;;;;8.60;84.20;;;;;;5006102;28;19925;-45
2020/12/17 01:28:13;;;;;;;;;;;8.60;84.20;;;;;;5006997;28;20364;-43
2020/12/17 01:30:42;;;;;;;;;;;8.60;84.20;;;;;;5003292;28;19940;-44
2020/12/17 01:33:08;;;;;;;;;;;8.60;84.20;;;;;;5008943;28;19925;-45
2020/12/17 01:35:34;;;;;;;;;;;8.60;84.30;;;;;;5015797;28;19929;-43
2020/12/17 01:38:01;;;;;;;;;;;8.60;84.30;;;;;;5010230;28;19925;-43
2020/12/17 01:40:27;;;;;;;;;;;8.60;84.40;;;;;;5009591;28;20500;-43
2020/12/17 01:42:53;;;;;;;;;;;8.60;84.30;;;;;;5009274;28;19932;-43
2020/12/17 01:45:19;;;;;;;;;;;8.60;84.40;;;;;;5014300;28;20020;-43
2020/12/17 01:47:53;;;;;;;;;;;8.60;84.40;;;;;;5011432;28;19929;-44
2020/12/17 01:50:20;;;;;;;;;;;8.60;84.40;;;;;;5010497;28;20893;-43
2020/12/17 01:52:46;;;;;;;;;;;8.60;84.40;;;;;;5006549;28;19933;-44
2020/12/17 01:55:12;;;;;;;;;;;8.60;84.40;;;;;;5009642;28;19929;-44
2020/12/17 01:57:41;;;;;;;;;;;8.60;84.50;;;;;;5008948;28;20403;-44
2020/12/17 02:00:08;;;;;;;;;;;8.60;84.50;;;;;;5008397;28;19947;-44
2020/12/17 02:02:34;;;;;;;;;;;8.60;84.50;;;;;;5008562;28;20064;-44
2020/12/17 02:05:06;;;;;;;;;;;8.60;84.30;;;;;;5008898;28;20270;-44
2020/12/17 02:07:38;;;;;;;;;;;8.50;84.30;;;;;;5004661;28;19965;-44
2020/12/17 02:10:04;;;;;;;;;;;8.50;84.30;;;;;;5009511;28;19933;-44
2020/12/17 02:12:45;;;;;;;;;;;8.60;84.30;;;;;;5008001;28;19933;-44
2020/12/17 02:15:12;;;;;;;;;;;8.50;84.40;;;;;;5008938;28;19931;-44
2020/12/17 02:17:38;;;;;;;;;;;8.50;84.40;;;;;;5007052;28;19933;-44
2020/12/17 02:20:05;;;;;;;;;;;8.50;84.40;;;;;;5008394;28;20381;-44
2020/12/17 02:22:32;;;;;;;;;;;8.50;84.50;;;;;;5008920;28;19936;-43
2020/12/17 02:24:59;;;;;;;;;;;8.50;84.50;;;;;;5007785;28;20428;-43
2020/12/17 02:27:25;;;;;;;;;;;8.50;84.50;;;;;;4996767;28;20404;-43
2020/12/17 02:29:51;;;;;;;;;;;8.50;84.60;;;;;;5008396;28;19925;-43
2020/12/17 02:32:17;;;;;;;;;;;8.50;84.50;;;;;;5010735;28;20412;-42
2020/12/17 02:34:43;;;;;;;;;;;8.50;84.80;;;;;;5009102;28;20293;-43
2020/12/17 02:37:09;;;;;;;;;;;8.50;84.60;;;;;;5007889;28;19948;-43
2020/12/17 02:39:36;;;;;;;;;;;8.50;84.80;;;;;;5008305;28;19925;-43
2020/12/17 02:42:03;;;;;;;;;;;8.50;84.80;;;;;;5003883;28;19930;-43
2020/12/17 02:44:29;;;;;;;;;;;8.40;84.90;;;;;;4998644;28;20029;-44
2020/12/17 02:46:55;;;;;;;;;;;8.40;85.00;;;;;;5009896;28;20363;-44
2020/12/17 02:49:21;;;;;;;;;;;8.40;85.00;;;;;;5005383;28;20358;-43
2020/12/17 02:51:47;;;;;;;;;;;8.40;84.90;;;;;;5011287;28;19930;-44
2020/12/17 02:54:13;;;;;;;;;;;8.50;84.90;;;;;;5004529;28;19944;-44
2020/12/17 02:56:39;;;;;;;;;;;8.50;84.90;;;;;;4991878;28;19933;-44
2020/12/17 02:59:05;;;;;;;;;;;8.50;84.80;;;;;;5007769;28;19926;-43
2020/12/17 03:01:32;;;;;;;;;;;8.40;84.80;;;;;;5003851;28;19933;-44
2020/12/17 03:03:58;;;;;;;;;;;8.40;84.80;;;;;;5005906;28;19925;-44
2020/12/17 03:06:24;;;;;;;;;;;8.40;84.80;;;;;;5006510;28;19956;-44
2020/12/17 03:08:50;;;;;;;;;;;8.40;84.80;;;;;;5004729;28;19929;-43
2020/12/17 03:11:17;;;;;;;;;;;8.40;84.80;;;;;;5005967;28;19978;-43
2020/12/17 03:13:43;;;;;;;;;;;8.50;84.80;;;;;;5005076;28;19932;-42
2020/12/17 03:16:09;;;;;;;;;;;8.40;84.70;;;;;;4994614;28;19925;-43
2020/12/17 03:18:35;;;;;;;;;;;8.40;84.80;;;;;;4995020;28;20859;-44
2020/12/17 03:21:01;;;;;;;;;;;8.40;84.80;;;;;;4992595;28;19933;-44
2020/12/17 03:23:27;;;;;;;;;;;8.50;84.90;;;;;;5006634;28;19925;-43
2020/12/17 03:25:53;;;;;;;;;;;8.40;84.90;;;;;;5007264;28;19929;-44
2020/12/17 03:28:20;;;;;;;;;;;8.40;84.80;;;;;;5008837;28;19932;-44
2020/12/17 03:30:46;;;;;;;;;;;8.40;84.90;;;;;;5004911;28;20487;-44
2020/12/17 03:33:12;;;;;;;;;;;8.40;84.90;;;;;;5006086;28;19925;-44
2020/12/17 03:35:38;;;;;;;;;;;8.40;84.70;;;;;;5007570;28;19933;-44
2020/12/17 03:38:05;;;;;;;;;;;8.40;84.70;;;;;;5003576;28;19933;-43
2020/12/17 03:40:31;;;;;;;;;;;8.40;84.60;;;;;;5007583;28;19929;-44
2020/12/17 03:42:57;;;;;;;;;;;8.40;84.60;;;;;;5005410;28;19929;-44
2020/12/17 03:45:23;;;;;;;;;;;8.40;84.60;;;;;;5007098;28;19940;-42
2020/12/17 03:47:49;;;;;;;;;;;8.40;84.60;;;;;;5006723;28;19929;-43
2020/12/17 03:50:17;;;;;;;;;;;8.40;84.60;;;;;;5007016;28;19936;-44
2020/12/17 03:52:43;;;;;;;;;;;8.40;84.70;;;;;;5006909;28;19990;-43
2020/12/17 03:55:09;;;;;;;;;;;8.30;84.70;;;;;;5006657;28;19933;-44
2020/12/17 03:57:38;;;;;;;;;;;8.30;84.70;;;;;;5005567;28;19939;-44
2020/12/17 04:00:05;;;;;;;;;;;8.30;84.80;;;;;;5005848;28;19944;-44
2020/12/17 04:02:31;;;;;;;;;;;8.30;84.70;;;;;;5005462;28;20500;-43
2020/12/17 04:04:57;;;;;;;;;;;8.30;84.60;;;;;;5004594;28;19933;-44
2020/12/17 04:07:23;;;;;;;;;;;8.30;84.60;;;;;;5007473;28;19940;-44
2020/12/17 04:09:49;;;;;;;;;;;8.40;84.60;;;;;;5007977;28;19925;-44
2020/12/17 04:12:16;;;;;;;;;;;8.30;84.60;;;;;;5006126;28;20385;-43
2020/12/17 04:14:42;;;;;;;;;;;8.30;84.60;;;;;;5004802;28;19933;-44
2020/12/17 04:17:08;;;;;;;;;;;8.30;84.60;;;;;;5004318;28;19925;-43
2020/12/17 04:19:34;;;;;;;;;;;8.30;84.60;;;;;;5008069;28;19929;-44
2020/12/17 04:22:00;;;;;;;;;;;8.30;84.70;;;;;;5004342;28;19929;-43
2020/12/17 04:24:28;;;;;;;;;;;8.30;84.80;;;;;;5005912;28;19925;-44
2020/12/17 04:26:54;;;;;;;;;;;8.30;84.80;;;;;;5007121;28;19933;-44
2020/12/17 04:29:21;;;;;;;;;;;8.30;84.80;;;;;;5005975;28;20027;-44
2020/12/17 04:31:47;;;;;;;;;;;8.30;84.90;;;;;;5006214;28;19933;-44
2020/12/17 04:34:13;;;;;;;;;;;8.30;84.80;;;;;;5004439;28;20017;-44
2020/12/17 04:36:40;;;;;;;;;;;8.30;84.80;;;;;;5011741;28;19925;-43
2020/12/17 04:39:17;;;;;;;;;;;8.30;84.80;;;;;;5005505;28;19929;-43
2020/12/17 04:41:46;;;;;;;;;;;8.30;84.80;;;;;;5006437;28;19940;-44
2020/12/17 04:44:14;;;;;;;;;;;8.30;84.80;;;;;;5006834;28;20013;-44
2020/12/17 04:46:41;;;;;;;;;;;8.30;84.90;;;;;;5005774;28;19930;-43
2020/12/17 04:49:10;;;;;;;;;;;8.30;84.90;;;;;;5009593;28;19929;-44
2020/12/17 04:51:36;;;;;;;;;;;8.30;84.90;;;;;;5007038;28;19932;-43
2020/12/17 04:54:04;;;;;;;;;;;8.30;84.80;;;;;;5004393;28;19940;-44
2020/12/17 04:56:36;;;;;;;;;;;8.30;84.90;;;;;;5006950;28;20484;-44
2020/12/17 04:59:02;;;;;;;;;;;8.30;84.80;;;;;;5006044;28;20301;-43
2020/12/17 05:01:31;;;;;;;;;;;8.30;84.90;;;;;;5005942;28;20808;-43
2020/12/17 05:03:58;;;;;;;;;;;8.30;85.00;;;;;;5007331;28;19956;-44
2020/12/17 05:06:25;;;;;;;;;;;8.30;85.10;;;;;;5003979;28;19955;-43
2020/12/17 05:08:51;;;;;;;;;;;8.30;85.10;;;;;;5006379;28;19925;-44
2020/12/17 05:11:18;;;;;;;;;;;8.40;85.10;;;;;;5006388;28;20377;-44
2020/12/17 05:13:44;;;;;;;;;;;8.40;85.10;;;;;;5009191;28;19933;-44
2020/12/17 05:16:11;;;;;;;;;;;8.30;85.10;;;;;;5010146;28;20391;-44
2020/12/17 05:18:39;;;;;;;;;;;8.30;85.10;;;;;;5011177;28;19932;-43
2020/12/17 05:21:06;;;;;;;;;;;8.30;85.00;;;;;;5009308;28;19939;-44
2020/12/17 05:23:33;;;;;;;;;;;8.30;84.90;;;;;;5010100;28;19929;-43
2020/12/17 05:25:59;;;;;;;;;;;8.30;85.00;;;;;;5010298;28;19951;-44
2020/12/17 05:28:25;;;;;;;;;;;8.30;85.10;;;;;;5010022;28;19929;-43
2020/12/17 05:30:52;;;;;;;;;;;8.30;85.10;;;;;;5008969;28;19952;-43
2020/12/17 05:33:20;;;;;;;;;;;8.20;85.10;;;;;;5006833;28;20376;-44
2020/12/17 05:35:48;;;;;;;;;;;8.20;85.50;;;;;;5009883;28;19930;-43
2020/12/17 05:38:23;;;;;;;;;;;8.20;85.50;;;;;;5008819;28;23721;-44
2020/12/17 05:40:50;;;;;;;;;;;8.20;85.50;;;;;;5008852;28;19940;-44
2020/12/17 05:43:21;;;;;;;;;;;8.20;85.30;;;;;;5007943;28;19930;-43
2020/12/17 05:45:49;;;;;;;;;;;8.20;85.30;;;;;;5009608;28;19925;-44
2020/12/17 05:48:20;;;;;;;;;;;8.10;85.50;;;;;;5006851;28;19964;-43
2020/12/17 05:50:50;;;;;;;;;;;8.10;85.50;;;;;;5009677;28;19925;-44
2020/12/17 05:53:17;;;;;;;;;;;8.10;85.40;;;;;;5008760;28;19933;-44
2020/12/17 05:55:43;;;;;;;;;;;8.10;85.50;;;;;;5014200;28;19933;-43
2020/12/17 05:58:10;;;;;;;;;;;8.10;85.60;;;;;;5011030;28;19933;-44
2020/12/17 06:00:39;;;;;;;;;;;8.10;85.50;;;;;;5008556;28;20551;-44
2020/12/17 06:03:11;;;;;;;;;;;8.10;85.70;;;;;;5010398;28;20268;-43
2020/12/17 06:05:42;;;;;;;;;;;8.10;85.60;;;;;;5008708;28;20400;-44
2020/12/17 06:08:14;;;;;;;;;;;8.10;85.40;;;;;;5010113;28;19926;-43
2020/12/17 06:10:45;;;;;;;;;;;8.10;85.40;;;;;;5009935;28;19933;-43
2020/12/17 06:13:13;;;;;;;;;;;8.00;85.50;;;;;;5009140;28;20372;-43
2020/12/17 06:15:40;;;;;;;;;;;8.00;85.80;;;;;;5010441;28;19929;-43
2020/12/17 06:18:09;;;;;;;;;;;8.00;85.80;;;;;;5006848;28;19930;-44
2020/12/17 06:20:35;;;;;;;;;;;8.00;85.50;;;;;;5005584;28;19934;-43
2020/12/17 06:23:03;;;;;;;;;;;8.00;85.60;;;;;;5024580;28;20377;-44
2020/12/17 06:25:30;;;;;;;;;;;8.00;85.80;;;;;;5005072;28;19941;-44
2020/12/17 06:27:59;;;;;;;;;;;7.90;85.80;;;;;;5009245;28;19926;-44
2020/12/17 06:30:29;;;;;;;;;;;7.90;85.70;;;;;;5004993;28;20366;-44
2020/12/17 06:32:59;;;;;;;;;;;7.90;85.70;;;;;;5007681;28;19929;-43
2020/12/17 06:35:28;;;;;;;;;;;7.90;85.60;;;;;;5008249;28;20336;-43
2020/12/17 06:38:05;;;;;;;;;;;7.90;86.10;;;;;;5006583;28;19933;-44
2020/12/17 06:40:36;;;;;;;;;;;7.90;86.20;;;;;;5007394;28;19925;-43
2020/12/17 06:43:03;;;;;;;;;;;7.90;86.10;;;;;;5008147;28;19930;-43
2020/12/17 06:45:33;;;;;;;;;;;7.90;86.10;;;;;;5008345;28;20537;-44
2020/12/17 06:48:00;;;;;;;;;;;8.00;85.70;;;;;;5007610;28;20349;-43
2020/12/17 06:50:28;;;;;;;;;;;7.90;85.70;;;;;;5008730;28;19948;-44
2020/12/17 06:53:02;;;;;;;;;;;7.90;85.90;;;;;;5009442;28;19925;-43
2020/12/17 06:55:38;;;;;;;;;;;7.90;85.80;;;;;;5009241;28;19945;-44
2020/12/17 06:58:05;;;;;;;;;;;7.90;86.00;;;;;;5008449;28;20428;-44
2020/12/17 07:00:31;;;;;;;;;;;8.00;86.00;;;;;;5006860;28;19933;-44
2020/12/17 07:02:57;;;;;;;;;;;8.00;85.90;;;;;;5006890;28;19925;-43
2020/12/17 07:05:30;;;;;;;;;;;8.00;85.70;;;;;;5010401;28;20366;-44
2020/12/17 07:07:56;;;;;;;;;;;8.00;85.70;;;;;;5008209;28;20366;-44
2020/12/17 07:10:26;;;;;;;;;;;7.90;85.50;;;;;;5008650;28;19968;-44
2020/12/17 07:12:52;;;;;;;;;;;7.90;85.40;;;;;;5010261;28;19936;-44
2020/12/17 07:15:29;;;;;;;;;;;7.90;85.40;;;;;;5006894;28;19925;-44
2020/12/17 07:18:14;;;;;;;;;;;7.90;85.50;;;;;;5005563;28;20434;-44
2020/12/17 07:20:42;;;;;;;;;;;7.90;85.70;;;;;;5007608;28;20389;-44
2020/12/17 07:23:09;;;;;;;;;;;7.90;85.70;;;;;;5008192;28;19930;-44
2020/12/17 07:25:38;;;;;;;;;;;7.90;85.70;;;;;;5008910;28;19933;-43
2020/12/17 07:28:05;;;;;;;;;;;7.90;85.70;;;;;;5007280;28;19933;-43
2020/12/17 07:30:31;;;;;;;;;;;7.90;85.60;;;;;;5007423;28;19933;-43
2020/12/17 07:32:57;;;;;;;;;;;7.90;85.60;;;;;;5007195;28;20305;-43
2020/12/17 07:35:25;;;;;;;;;;;7.90;85.80;;;;;;5008126;28;19940;-43
2020/12/17 07:37:55;;;;;;;;;;;7.90;85.80;;;;;;5008803;28;19964;-43
2020/12/17 07:40:24;;;;;;;;;;;7.80;85.90;;;;;;5007218;28;19940;-44
2020/12/17 07:43:02;;;;;;;;;;;7.90;85.80;;;;;;5010096;28;19929;-44
2020/12/17 07:45:35;;;;;;;;;;;7.90;85.80;;;;;;5007917;28;19926;-43
2020/12/17 07:48:02;;;;;;;;;;;7.90;86.00;;;;;;5008712;28;19933;-44
2020/12/17 07:50:38;;;;;;;;;;;7.90;85.80;;;;;;5006573;28;19925;-44
2020/12/17 07:53:23;;;;;;;;;;;7.90;85.60;;;;;;5008672;28;20276;-44
2020/12/17 07:55:53;;;;;;;;;;;8.00;85.60;;;;;;5008562;28;19947;-43
2020/12/17 07:58:19;;;;;;;;;;;8.00;85.30;;;;;;5005355;28;19925;-44
2020/12/17 08:00:45;;;;;;;;;;;8.00;85.40;;;;;;5006770;28;19933;-44
2020/12/17 08:03:11;;;;;;;;;;;8.00;85.40;;;;;;5002480;28;19932;-44
2020/12/17 08:05:38;;;;;;;;;;;8.00;85.50;;;;;;5003245;28;19940;-44
2020/12/17 08:08:05;;;;;;;;;;;8.00;85.40;;;;;;5005578;28;20288;-44
2020/12/17 08:10:38;;;;;;;;;;;8.00;85.40;;;;;;5007023;28;19939;-44
2020/12/17 08:13:05;;;;;;;;;;;8.10;84.90;;;;;;5005663;28;20019;-44
2020/12/17 08:15:31;;;;;;;;;;;8.10;85.30;;;;;;5007774;28;19940;-44
2020/12/17 08:17:57;;;;;;;;;;;8.10;85.30;;;;;;5019901;28;20009;-44
2020/12/17 08:20:26;;;;;;;;;;;8.10;85.20;;;;;;5005549;28;19925;-43
2020/12/17 08:22:53;;;;;;;;;;;8.10;85.00;;;;;;5006658;28;19929;-44
2020/12/17 08:25:19;;;;;;;;;;;8.20;85.00;;;;;;5005141;28;19929;-44
2020/12/17 08:27:47;;;;;;;;;;;8.20;84.90;;;;;;5007143;28;20806;-44
2020/12/17 08:30:14;;;;;;;;;;;8.10;85.00;;;;;;5004754;28;19976;-43
2020/12/17 08:32:50;;;;;;;;;;;8.20;85.20;;;;;;5006859;28;19933;-44
2020/12/17 08:35:26;;;;;;;;;;;8.20;85.00;;;;;;5006875;28;19929;-44
2020/12/17 08:37:53;;;;;;;;;;;8.20;84.90;;;;;;5007411;28;19932;-44
2020/12/17 08:40:21;;;;;;;;;;;8.20;85.00;;;;;;5007026;28;19964;-44
2020/12/17 08:42:49;;;;;;;;;;;8.20;84.90;;;;;;5009946;28;19933;-44
2020/12/17 08:45:18;;;;;;;;;;;8.30;84.90;;;;;;5008290;28;19929;-43
2020/12/17 08:47:45;;;;;;;;;;;8.30;84.80;;;;;;5011073;28;19929;-44
2020/12/17 08:50:12;;;;;;;;;;;8.30;84.70;;;;;;5011953;28;19929;-44
2020/12/17 08:52:38;;;;;;;;;;;8.30;84.80;;;;;;5006226;28;20374;-43
2020/12/17 08:55:09;;;;;;;;;;;8.30;84.80;;;;;;5010257;28;20285;-43
2020/12/17 08:57:36;;;;;;;;;;;8.30;84.80;;;;;;5010091;28;19933;-44
2020/12/17 09:00:04;;;;;;;;;;;8.30;84.70;;;;;;5011015;28;19952;-44
2020/12/17 09:02:30;;;;;;;;;;;8.30;84.80;;;;;;5008755;28;20012;-41
2020/12/17 09:04:57;;;;;;;;;;;8.30;84.70;;;;;;5009544;28;19980;-44
2020/12/17 09:07:25;;;;;;;;;;;8.30;84.60;;;;;;5010094;28;19929;-43
2020/12/17 09:09:51;;;;;;;;;;;8.30;84.70;;;;;;5011152;28;19940;-43
2020/12/17 09:12:28;;;;;;;;;;;8.30;84.70;;;;;;5011157;28;19929;-44
2020/12/17 09:14:54;;;;;;;;;;;8.30;84.80;;;;;;5009342;28;19929;-42
2020/12/17 09:17:22;;;;;;;;;;;8.30;84.70;;;;;;5009333;28;19982;-43
2020/12/17 09:19:49;;;;;;;;;;;8.30;84.50;;;;;;5008071;28;19935;-42
2020/12/17 09:22:19;;;;;;;;;;;8.30;84.80;;;;;;5012639;28;19933;-44
2020/12/17 09:24:49;;;;;;;;;;;8.30;84.80;;;;;;5009926;28;19933;-43
2020/12/17 09:27:20;;;;;;;;;;;8.30;84.70;;;;;;5010181;28;19926;-43
2020/12/17 09:29:58;;;;;;;;;;;8.30;84.60;;;;;;4993005;28;20555;-44
2020/12/17 09:32:24;;;;;;;;;;;8.30;84.50;;;;;;5003359;28;19925;-44
2020/12/17 09:34:59;;;;;;;;;;;8.40;84.50;;;;;;5011226;28;19941;-43
2020/12/17 09:37:25;;;;;;;;;;;8.40;84.50;;;;;;5005624;28;19925;-43
2020/12/17 09:39:54;;;;;;;;;;;8.40;84.50;;;;;;5007292;28;20399;-44
2020/12/17 09:42:26;;;;;;;;;;;8.40;84.50;;;;;;5007716;28;19936;-42
2020/12/17 09:44:52;;;;;;;;;;;8.40;84.50;;;;;;5008938;28;19925;-41
2020/12/17 09:47:33;;;;;;;;;;;8.40;84.50;;;;;;5009519;28;19929;-41
2020/12/17 09:50:07;;;;;;;;;;;8.50;84.60;;;;;;5010579;28;20381;-41
2020/12/17 09:52:34;;;;;;;;;;;8.50;84.60;;;;;;5006451;28;20407;-42
2020/12/17 09:55:03;;;;;;;;;;;8.50;84.50;;;;;;5007827;28;20015;-41
2020/12/17 09:57:36;;;;;;;;;;;8.60;84.50;;;;;;5006454;28;19930;-42
2020/12/17 10:00:04;;;;;;;;;;;8.50;84.60;;;;;;5008417;28;19929;-43
2020/12/17 10:02:30;;;;;;;;;;;8.50;84.60;;;;;;5024932;28;19929;-43
2020/12/17 10:04:57;;;;;;;;;;;8.60;84.60;;;;;;5010868;28;19945;-43
2020/12/17 10:07:23;;;;;;;;;;;8.60;84.60;;;;;;5013830;28;19936;-42
2020/12/17 10:09:49;;;;;;;;;;;8.60;84.80;;;;;;5007248;28;19939;-44
2020/12/17 10:12:16;;;;;;;;;;;8.60;84.80;;;;;;5008673;28;19944;-44
2020/12/17 10:14:42;;;;;;;;;;;8.70;84.50;;;;;;5001154;28;19933;-44
2020/12/17 10:17:09;;;;;;;;;;;8.70;84.70;;;;;;5007403;28;20390;-43
2020/12/17 10:19:35;;;;;;;;;;;8.70;84.80;;;;;;5004998;28;19933;-44
2020/12/17 10:22:01;;;;;;;;;;;8.70;84.80;;;;;;5008602;28;19933;-43
2020/12/17 10:24:28;;;;;;;;;;;8.70;84.70;;;;;;5008190;28;19987;-44
2020/12/17 10:26:54;;;;;;;;;;;8.70;84.70;;;;;;5008678;28;19925;-43
2020/12/17 10:29:26;;;;;;;;;;;8.70;84.60;;;;;;5007327;28;19932;-44
2020/12/17 10:31:52;;;;;;;;;;;8.70;84.40;;;;;;5009696;28;19956;-44
2020/12/17 10:34:18;;;;;;;;;;;8.70;84.50;;;;;;5007190;28;20016;-44
2020/12/17 10:36:45;;;;;;;;;;;8.70;84.60;;;;;;5010258;28;19966;-44
2020/12/17 10:39:12;;;;;;;;;;;8.80;84.60;;;;;;5003793;28;19955;-44
2020/12/17 10:41:39;;;;;;;;;;;8.80;84.60;;;;;;5005910;28;22638;-43
2020/12/17 10:44:05;;;;;;;;;;;8.90;84.70;;;;;;5003446;28;19932;-44
2020/12/17 10:46:32;;;;;;;;;;;8.90;84.80;;;;;;5009074;28;19930;-43
2020/12/17 10:48:59;;;;;;;;;;;9.00;84.80;;;;;;5000143;28;19936;-43
2020/12/17 10:51:25;;;;;;;;;;;9.00;84.90;;;;;;5022315;28;19931;-44
2020/12/17 10:53:52;;;;;;;;;;;9.10;84.70;;;;;;5008161;28;19932;-43
2020/12/17 10:56:21;;;;;;;;;;;9.10;84.60;;;;;;5010022;28;19933;-43
2020/12/17 10:58:49;;;;;;;;;;;9.20;84.50;;;;;;5007719;28;19936;-43
2020/12/17 11:01:20;;;;;;;;;;;9.30;84.30;;;;;;5007577;28;19949;-43
2020/12/17 11:03:46;;;;;;;;;;;9.30;84.20;;;;;;5007762;28;19931;-43
2020/12/17 11:06:16;;;;;;;;;;;9.30;84.10;;;;;;5006881;28;19932;-43
2020/12/17 11:08:42;;;;;;;;;;;9.40;84.10;;;;;;5007555;28;19933;-43
2020/12/17 11:11:09;;;;;;;;;;;9.40;83.90;;;;;;5008101;28;20343;-44
2020/12/17 11:13:35;;;;;;;;;;;9.40;83.80;;;;;;5009171;28;19929;-44
2020/12/17 11:16:01;;;;;;;;;;;9.40;83.60;;;;;;4989984;28;20388;-44
2020/12/17 11:18:28;;;;;;;;;;;9.40;83.40;;;;;;5005878;28;19929;-44
2020/12/17 11:20:54;;;;;;;;;;;9.50;83.30;;;;;;5008466;28;19929;-42
2020/12/17 11:23:20;;;;;;;;;;;9.50;83.20;;;;;;5003490;28;19929;-44
2020/12/17 11:25:46;;;;;;;;;;;9.50;83.40;;;;;;5007554;28;19925;-44
2020/12/17 11:28:12;;;;;;;;;;;9.60;83.50;;;;;;5004123;28;19925;-44
2020/12/17 11:30:38;;;;;;;;;;;9.60;83.60;;;;;;5005633;28;19929;-44
2020/12/17 11:33:07;;;;;;;;;;;9.70;83.70;;;;;;5005599;28;19941;-43
2020/12/17 11:35:33;;;;;;;;;;;9.70;83.70;;;;;;5004523;28;19935;-44
2020/12/17 11:38:00;;;;;;;;;;;9.70;83.60;;;;;;5005320;28;19933;-44
2020/12/17 11:40:26;;;;;;;;;;;9.70;83.60;;;;;;5008384;28;19931;-43
2020/12/17 11:42:54;;;;;;;;;;;9.70;83.40;;;;;;5005880;28;19932;-44
2020/12/17 11:45:20;;;;;;;;;;;9.80;83.20;;;;;;5020915;28;19936;-44
2020/12/17 11:47:46;;;;;;;;;;;9.70;83.30;;;;;;5006554;28;19926;-43
2020/12/17 11:50:12;;;;;;;;;;;9.70;83.30;;;;;;5009688;28;19971;-43
2020/12/17 11:52:39;;;;;;;;;;;9.70;83.40;;;;;;5009013;28;19929;-44
2020/12/17 11:55:06;;;;;;;;;;;9.60;83.50;;;;;;5006328;28;19929;-43
2020/12/17 11:57:33;;;;;;;;;;;9.60;83.50;;;;;;5005665;28;19933;-43
2020/12/17 11:59:59;;;;;;;;;;;9.60;83.70;;;;;;5004402;28;19929;-44
2020/12/17 12:02:25;;;;;;;;;;;9.70;83.90;;;;;;5007290;28;19933;-44
2020/12/17 12:04:51;;;;;;;;;;;9.70;83.90;;;;;;5006604;28;20514;-43
2020/12/17 12:07:18;;;;;;;;;;;9.70;83.60;;;;;;5009319;28;19929;-44
2020/12/17 12:09:44;;;;;;;;;;;9.70;83.50;;;;;;5002944;28;19932;-45
2020/12/17 12:12:10;;;;;;;;;;;9.80;83.30;;;;;;5005574;28;19931;-42
2020/12/17 12:14:37;;;;;;;;;;;9.80;83.30;;;;;;5005928;28;19929;-44
2020/12/17 12:17:04;;;;;;;;;;;9.90;83.50;;;;;;5006605;28;19940;-44
2020/12/17 12:19:30;;;;;;;;;;;9.90;83.40;;;;;;5001086;28;21498;-43
2020/12/17 12:21:56;;;;;;;;;;;10.00;83.40;;;;;;5002829;28;19929;-41
2020/12/17 12:24:23;;;;;;;;;;;10.00;83.40;;;;;;5008072;28;19929;-44
2020/12/17 12:26:49;;;;;;;;;;;10.10;83.10;;;;;;5004880;28;19929;-43
2020/12/17 12:29:16;;;;;;;;;;;10.10;82.80;;;;;;5003770;28;20483;-42
2020/12/17 12:31:42;;;;;;;;;;;10.10;82.70;;;;;;5005679;28;19925;-42
2020/12/17 12:34:08;;;;;;;;;;;10.10;82.60;;;;;;5006995;28;19925;-43
2020/12/17 12:36:35;;;;;;;;;;;10.10;82.80;;;;;;5007218;28;20523;-43
2020/12/17 12:39:01;;;;;;;;;;;10.20;82.90;;;;;;5000392;28;20023;-42
2020/12/17 12:41:27;;;;;;;;;;;10.20;82.70;;;;;;5009974;28;20021;-42
2020/12/17 12:44:06;;;;;;;;;;;10.20;82.60;;;;;;5005668;28;19933;-42
2020/12/17 12:46:32;;;;;;;;;;;10.20;82.80;;;;;;5004803;28;20020;-43
2020/12/17 12:48:58;;;;;;;;;;;10.20;82.90;;;;;;5006808;28;20550;-43
2020/12/17 12:51:25;;;;;;;;;;;10.20;83.00;;;;;;5008531;28;20020;-42
2020/12/17 12:53:55;;;;;;;;;;;10.20;83.10;;;;;;5003489;28;19926;-43
2020/12/17 12:56:28;;;;;;;;;;;10.20;83.00;;;;;;5003531;28;19926;-43
2020/12/17 12:58:55;;;;;;;;;;;10.20;83.00;;;;;;5005199;28;19925;-44
2020/12/17 13:01:21;;;;;;;;;;;10.20;83.00;;;;;;5001152;28;19933;-43
2020/12/17 13:03:47;;;;;;;;;;;10.20;82.80;;;;;;5005792;28;19930;-44
2020/12/17 13:06:16;;;;;;;;;;;10.20;82.70;;;;;;5004672;28;19932;-44
2020/12/17 13:08:43;;;;;;;;;;;10.20;82.90;;;;;;5005957;28;19940;-42
2020/12/17 13:11:14;;;;;;;;;;;10.20;83.00;;;;;;5004904;28;19925;-42
2020/12/17 13:13:40;;;;;;;;;;;10.30;83.00;;;;;;5003552;28;20483;-44
2020/12/17 13:16:06;;;;;;;;;;;10.30;83.00;;;;;;5003133;28;20300;-44
2020/12/17 13:18:33;;;;;;;;;;;10.30;83.00;;;;;;5004300;28;20484;-44
2020/12/17 13:20:59;;;;;;;;;;;10.30;83.00;;;;;;5003902;28;19979;-42
2020/12/17 13:23:27;;;;;;;;;;;10.30;83.10;;;;;;5004044;28;20164;-42
2020/12/17 13:25:54;;;;;;;;;;;10.30;83.10;;;;;;5005532;28;19973;-45
2020/12/17 13:28:20;;;;;;;;;;;10.30;82.90;;;;;;5011949;28;19932;-42
2020/12/17 13:30:46;;;;;;;;;;;10.30;83.20;;;;;;5005118;28;19953;-45
2020/12/17 13:33:12;;;;;;;;;;;10.30;83.20;;;;;;5008345;28;19925;-44
2020/12/17 13:35:39;;;;;;;;;;;10.40;83.30;;;;;;5010328;28;20366;-45
2020/12/17 13:38:05;;;;;;;;;;;10.40;83.30;;;;;;5008194;28;19926;-44
2020/12/17 13:40:31;;;;;;;;;;;10.40;83.20;;;;;;5008060;28;20015;-44
2020/12/17 13:42:58;;;;;;;;;;;10.40;83.20;;;;;;4999466;28;19936;-43
2020/12/17 13:45:24;;;;;;;;;;;10.50;83.10;;;;;;5015049;28;19925;-44
2020/12/17 13:47:50;;;;;;;;;;;10.50;83.20;;;;;;5011231;28;20296;-44
2020/12/17 13:50:17;;;;;;;;;;;10.50;83.20;;;;;;5008296;28;19949;-44
2020/12/17 13:52:43;;;;;;;;;;;10.50;83.30;;;;;;5012259;28;20040;-44
2020/12/17 13:55:09;;;;;;;;;;;10.50;83.30;;;;;;5011470;28;19929;-44
2020/12/17 13:57:35;;;;;;;;;;;10.50;83.30;;;;;;5009988;28;19939;-44
2020/12/17 14:00:03;;;;;;;;;;;10.50;83.30;;;;;;5009288;28;19953;-44
2020/12/17 14:02:29;;;;;;;;;;;10.50;83.20;;;;;;5009774;28;19925;-43
2020/12/17 14:04:55;;;;;;;;;;;10.50;83.20;;;;;;5001124;28;19984;-44
2020/12/17 14:07:21;;;;;;;;;;;10.40;83.10;;;;;;5004642;28;19929;-44
2020/12/17 14:09:48;;;;;;;;;;;10.40;82.90;;;;;;5008841;28;20443;-44
2020/12/17 14:12:14;;;;;;;;;;;10.40;83.00;;;;;;5006261;28;19953;-44
2020/12/17 14:14:41;;;;;;;;;;;10.40;82.90;;;;;;5007997;28;19925;-43
2020/12/17 14:17:07;;;;;;;;;;;10.40;82.90;;;;;;5025073;28;19937;-43
2020/12/17 14:19:33;;;;;;;;;;;10.40;82.80;;;;;;5008993;28;20028;-43
2020/12/17 14:22:00;;;;;;;;;;;10.40;82.90;;;;;;5003882;28;19934;-44
2020/12/17 14:24:26;;;;;;;;;;;10.40;82.90;;;;;;4993842;28;19929;-43
2020/12/17 14:26:52;;;;;;;;;;;10.40;82.90;;;;;;5003347;28;20028;-44
2020/12/17 14:29:18;;;;;;;;;;;10.40;83.00;;;;;;5004819;28;19936;-44